Time;durP1;ratioP1;P1;durP2;ratioP2;P2;SDS_P1;SDS_P2;PMS_P1;PMS_P2;Temp;Humidity;BMP_temperature;BMP_pressure;BME280_temperature;BME280_humidity;BME280_pressure;Samples;Min_cycle;Max_cycle;Signal;HPM_P1;HPM_P2
2021/06/25 00:00:35;;;;;;;11.13;5.25;;;;;;;27.81;57.23;100863.44;5019707;28;20068;-64
2021/06/25 00:03:03;;;;;;;15.45;6.03;;;;;;;27.80;57.34;100867.09;5031760;28;20041;-64
2021/06/25 00:05:31;;;;;;;14.63;5.35;;;;;;;27.80;57.42;100867.09;5031762;28;20386;-63
2021/06/25 00:08:00;;;;;;;11.20;5.82;;;;;;;27.76;57.50;100869.13;5031482;28;20118;-64
2021/06/25 00:10:28;;;;;;;12.77;5.30;;;;;;;27.76;57.61;100861.81;5028119;28;20112;-65
2021/06/25 00:12:56;;;;;;;13.73;5.25;;;;;;;27.76;57.65;100863.69;5011394;28;20402;-65
2021/06/25 00:15:24;;;;;;;12.45;5.72;;;;;;;27.68;57.90;100861.38;5011524;28;20498;-65
2021/06/25 00:17:52;;;;;;;14.18;5.85;;;;;;;27.64;58.27;100859.78;5011620;28;20041;-65
2021/06/25 00:20:20;;;;;;;12.10;5.90;;;;;;;27.64;58.35;100858.91;5011111;28;20065;-65
2021/06/25 00:22:47;;;;;;;11.93;5.75;;;;;;;27.64;58.26;100865.19;5011321;28;20109;-65
2021/06/25 00:25:17;;;;;;;15.45;6.30;;;;;;;27.59;58.70;100858.28;5011291;28;20041;-64
2021/06/25 00:27:44;;;;;;;17.10;6.57;;;;;;;27.61;58.41;100856.38;5009365;28;20038;-64
2021/06/25 00:30:15;;;;;;;12.77;5.75;;;;;;;27.64;58.43;100865.19;5011395;28;20057;-64
2021/06/25 00:32:43;;;;;;;15.52;6.30;;;;;;;27.62;58.66;100867.16;5011066;28;20045;-64
2021/06/25 00:35:11;;;;;;;18.73;6.97;;;;;;;27.61;58.87;100861.78;5011051;28;20498;-64
2021/06/25 00:37:38;;;;;;;16.60;6.45;;;;;;;27.56;58.86;100856.63;5010651;28;20034;-63
2021/06/25 00:40:07;;;;;;;18.13;5.93;;;;;;;27.53;58.81;100843.22;5011450;28;20041;-64
2021/06/25 00:42:37;;;;;;;14.57;5.85;;;;;;;27.52;59.03;100841.44;5010902;28;20034;-64
2021/06/25 00:45:13;;;;;;;18.73;6.95;;;;;;;27.45;59.48;100834.56;5011346;28;20101;-64
2021/06/25 00:47:40;;;;;;;12.85;5.68;;;;;;;27.44;59.36;100827.38;5010995;28;20038;-64
2021/06/25 00:50:09;;;;;;;15.52;5.82;;;;;;;27.44;59.15;100827.38;5010823;28;20064;-64
2021/06/25 00:52:36;;;;;;;11.02;5.90;;;;;;;27.44;58.85;100821.97;5010425;28;20045;-65
2021/06/25 00:55:05;;;;;;;10.20;5.82;;;;;;;27.38;59.30;100825.00;5010279;28;20038;-64
2021/06/25 00:57:32;;;;;;;16.00;6.00;;;;;;;27.37;58.95;100824.13;5010785;28;20034;-64
2021/06/25 01:00:01;;;;;;;17.63;6.07;;;;;;;27.40;58.90;100824.91;5011207;28;20033;-65
2021/06/25 01:02:29;;;;;;;16.00;6.60;;;;;;;27.41;58.77;100822.13;5008445;28;20038;-64
2021/06/25 01:04:56;;;;;;;15.05;5.72;;;;;;;27.46;58.69;100830.03;5012010;28;20042;-64
2021/06/25 01:07:24;;;;;;;13.30;6.68;;;;;;;27.48;58.50;100833.53;5010118;28;20104;-64
2021/06/25 01:09:52;;;;;;;12.25;5.72;;;;;;;27.45;58.39;100825.53;5009857;28;20125;-64
2021/06/25 01:12:20;;;;;;;13.77;5.90;;;;;;;27.48;58.20;100823.56;5010067;28;20041;-64
2021/06/25 01:14:47;;;;;;;13.60;5.38;;;;;;;27.38;58.27;100828.59;5010255;28;20457;-65
2021/06/25 01:17:31;;;;;;;12.75;5.97;;;;;;;27.34;57.94;100826.13;5010411;28;20042;-65
2021/06/25 01:20:00;;;;;;;13.23;5.47;;;;;;;27.36;57.98;100819.69;5016978;28;20046;-64
2021/06/25 01:22:35;;;;;;;17.15;5.90;;;;;;;27.37;57.65;100810.56;5017199;28;20116;-65
2021/06/25 01:25:09;;;;;;;16.70;6.18;;;;;;;27.37;57.72;100810.56;5029605;28;20046;-64
2021/06/25 01:27:37;;;;;;;14.30;6.57;;;;;;;27.34;57.47;100816.16;5029882;28;20056;-64
2021/06/25 01:30:07;;;;;;;13.95;5.75;;;;;;;27.37;57.33;100815.13;5029035;28;20041;-64
2021/06/25 01:32:35;;;;;;;12.20;5.68;;;;;;;27.38;56.88;100811.44;5026526;28;20557;-64
2021/06/25 01:35:03;;;;;;;19.13;6.07;;;;;;;27.35;57.03;100812.50;5029368;28;20120;-64
2021/06/25 01:37:34;;;;;;;12.07;5.55;;;;;;;27.35;57.10;100808.91;5030255;28;20036;-64
2021/06/25 01:40:01;;;;;;;17.60;6.20;;;;;;;27.33;56.72;100806.25;5010104;28;20080;-63
2021/06/25 01:42:34;;;;;;;15.15;6.05;;;;;;;27.35;56.88;100809.78;5009527;28;20397;-65
2021/06/25 01:45:04;;;;;;;14.95;6.10;;;;;;;27.28;56.69;100811.06;5014130;28;20673;-64
2021/06/25 01:47:32;;;;;;;15.75;5.75;;;;;;;27.27;57.05;100803.00;5012990;28;20060;-64
2021/06/25 01:49:59;;;;;;;19.45;6.85;;;;;;;27.24;57.27;100809.44;5009157;28;20049;-64
2021/06/25 01:52:27;;;;;;;13.10;5.60;;;;;;;27.23;57.05;100798.72;5009074;28;20133;-64
2021/06/25 01:54:56;;;;;;;15.50;5.80;;;;;;;27.22;57.49;100807.78;5010154;28;20065;-65
2021/06/25 01:57:23;;;;;;;18.77;6.22;;;;;;;27.19;57.79;100802.53;5009689;28;20103;-64
2021/06/25 01:59:51;;;;;;;13.57;6.80;;;;;;;27.13;57.70;100800.13;5008212;28;20046;-65
2021/06/25 02:02:19;;;;;;;15.90;5.75;;;;;;;27.13;58.05;100801.00;5008194;28;20397;-64
2021/06/25 02:04:46;;;;;;;15.23;6.47;;;;;;;27.15;57.86;100806.38;5008082;28;20040;-64
2021/06/25 02:07:14;;;;;;;18.02;5.68;;;;;;;27.09;58.25;100803.97;5009698;28;20046;-64
2021/06/25 02:09:41;;;;;;;16.95;7.07;;;;;;;27.07;58.17;100795.03;5009928;28;20061;-64
2021/06/25 02:12:11;;;;;;;14.98;5.68;;;;;;;27.06;58.55;100796.88;5009107;28;20117;-64
2021/06/25 02:14:39;;;;;;;14.68;5.97;;;;;;;27.07;58.67;100800.47;5009204;28;20121;-64
2021/06/25 02:17:06;;;;;;;19.45;6.13;;;;;;;27.02;58.78;100803.41;5009714;28;20054;-64
2021/06/25 02:19:34;;;;;;;20.15;6.45;;;;;;;26.95;59.09;100802.84;5009125;28;20057;-64
2021/06/25 02:22:04;;;;;;;15.85;6.03;;;;;;;26.95;59.22;100812.81;5007801;28;20030;-64
2021/06/25 02:24:32;;;;;;;18.70;6.18;;;;;;;27.01;59.24;100806.19;5008853;28;20101;-64
2021/06/25 02:26:59;;;;;;;16.05;6.47;;;;;;;27.02;59.09;100816.97;5006635;28;20042;-64
2021/06/25 02:29:29;;;;;;;15.02;6.43;;;;;;;27.01;59.46;100817.03;5007450;28;20045;-64
2021/06/25 02:31:57;;;;;;;18.30;6.57;;;;;;;26.98;59.49;100818.94;5008888;28;20053;-65
2021/06/25 02:34:25;;;;;;;15.73;6.00;;;;;;;26.92;59.82;100826.50;5007274;28;20037;-65
2021/06/25 02:36:52;;;;;;;16.73;6.45;;;;;;;26.93;59.54;100825.56;5009281;28;20082;-64
2021/06/25 02:39:20;;;;;;;17.73;5.90;;;;;;;26.95;59.58;100820.94;5009272;28;20045;-65
2021/06/25 02:41:48;;;;;;;15.73;6.32;;;;;;;26.99;59.54;100819.81;5008701;28;20092;-64
2021/06/25 02:44:15;;;;;;;17.38;7.53;;;;;;;27.02;59.36;100818.78;5008093;28;20137;-64
2021/06/25 02:46:45;;;;;;;20.98;6.57;;;;;;;27.02;59.61;100818.78;5008545;28;20080;-65
2021/06/25 02:49:13;;;;;;;14.07;5.60;;;;;;;26.94;59.56;100827.31;5007139;28;20062;-64
2021/06/25 02:51:40;;;;;;;15.30;7.47;;;;;;;26.91;60.12;100833.75;5008693;28;20042;-65
2021/06/25 02:54:08;;;;;;;19.23;7.43;;;;;;;26.89;60.08;100835.69;5006036;28;20050;-64
2021/06/25 02:56:36;;;;;;;15.07;6.35;;;;;;;26.82;60.44;100839.63;5009041;28;20041;-64
2021/06/25 02:59:03;;;;;;;20.05;7.53;;;;;;;26.79;60.35;100839.75;5008081;28;20044;-64
2021/06/25 03:01:31;;;;;;;14.50;5.55;;;;;;;26.78;60.48;100837.16;5008556;28;20069;-64
2021/06/25 03:04:00;;;;;;;14.32;6.50;;;;;;;26.79;60.28;100834.34;5014404;28;20049;-64
2021/06/25 03:06:28;;;;;;;16.80;6.80;;;;;;;26.78;60.56;100846.13;5007173;28;20567;-65
2021/06/25 03:08:55;;;;;;;17.80;7.80;;;;;;;26.86;60.46;100846.63;5008173;28;20057;-65
2021/06/25 03:11:23;;;;;;;14.48;6.20;;;;;;;26.85;60.55;100855.72;5008908;28;20044;-64
2021/06/25 03:13:51;;;;;;;12.45;5.80;;;;;;;26.91;59.99;100854.59;5009147;28;20049;-65
2021/06/25 03:16:18;;;;;;;17.50;6.53;;;;;;;26.91;60.27;100860.84;5008307;28;20038;-64
2021/06/25 03:18:45;;;;;;;16.40;5.80;;;;;;;26.93;60.18;100858.97;5008483;28;20121;-64
2021/06/25 03:21:17;;;;;;;17.02;5.85;;;;;;;27.01;59.91;100868.53;5008742;28;20036;-64
2021/06/25 03:23:45;;;;;;;15.15;6.10;;;;;;;27.03;59.96;100866.63;5005446;28;20121;-64
2021/06/25 03:26:12;;;;;;;13.60;6.15;;;;;;;27.11;59.80;100865.25;5010277;28;20136;-65
2021/06/25 03:28:40;;;;;;;16.75;5.90;;;;;;;27.21;59.60;100861.16;5012362;28;20040;-65
2021/06/25 03:31:07;;;;;;;14.77;5.72;;;;;;;27.32;59.39;100871.41;5011680;28;20044;-64
2021/06/25 03:33:35;;;;;;;12.55;5.90;;;;;;;27.40;59.23;100865.59;5012502;28;20041;-64
2021/06/25 03:36:02;;;;;;;17.88;6.10;;;;;;;27.50;59.31;100873.19;5011750;28;20073;-64
2021/06/25 03:38:32;;;;;;;18.35;5.85;;;;;;;27.59;59.28;100869.13;5012816;28;20049;-64
2021/06/25 03:41:00;;;;;;;19.42;6.65;;;;;;;27.67;59.45;100867.78;5017045;28;20128;-64
2021/06/25 03:43:27;;;;;;;23.98;6.85;;;;;;;27.78;59.26;100867.19;5011981;28;20557;-65
2021/06/25 03:45:55;;;;;;;14.23;5.40;;;;;;;27.87;59.22;100876.66;5012079;28;20034;-64
2021/06/25 03:48:22;;;;;;;17.90;5.75;;;;;;;27.99;58.73;100879.59;5011896;28;20054;-65
2021/06/25 03:50:50;;;;;;;15.95;6.45;;;;;;;28.09;58.72;100879.97;5011793;28;20042;-64
2021/06/25 03:53:18;;;;;;;15.43;6.00;;;;;;;28.25;58.49;100875.47;5012468;28;20117;-65
2021/06/25 03:58:31;;;;;;;15.82;5.55;;;;;;;28.59;57.49;100868.13;5031172;28;20131;-64
2021/06/25 04:00:59;;;;;;;19.67;5.97;;;;;;;28.70;56.98;100876.53;5031886;28;20038;-65
2021/06/25 04:03:26;;;;;;;13.98;5.30;;;;;;;28.85;56.46;100878.41;5031648;28;20336;-64
2021/06/25 04:05:54;;;;;;;15.88;5.80;;;;;;;28.94;56.20;100872.44;5011740;28;20058;-64
2021/06/25 04:08:24;;;;;;;16.33;5.32;;;;;;;29.04;56.10;100879.06;5020006;28;20042;-64
2021/06/25 04:10:54;;;;;;;15.93;4.43;;;;;;;29.21;55.26;100873.50;5011050;28;20042;-64
2021/06/25 04:13:22;;;;;;;12.88;5.43;;;;;;;29.33;55.05;100885.50;5000935;28;20049;-64
2021/06/25 04:15:50;;;;;;;13.68;5.05;;;;;;;29.48;54.40;100878.25;5011332;28;20042;-64
2021/06/25 04:18:17;;;;;;;13.20;4.97;;;;;;;29.66;53.93;100886.19;5011180;28;20034;-64
2021/06/25 04:20:46;;;;;;;14.32;5.13;;;;;;;29.87;53.82;100894.84;5010430;28;20113;-65
2021/06/25 04:23:14;;;;;;;20.40;4.65;;;;;;;30.04;52.95;100902.91;5010327;28;20045;-64
2021/06/25 04:25:42;;;;;;;13.88;4.60;;;;;;;30.25;52.62;100905.22;4991840;28;20050;-64
2021/06/25 04:28:11;;;;;;;14.55;4.82;;;;;;;30.38;51.97;100898.91;5002429;28;20129;-64
2021/06/25 04:30:41;;;;;;;15.75;4.68;;;;;;;30.52;51.65;100903.50;5010574;28;20057;-64
2021/06/25 04:33:11;;;;;;;10.15;4.47;;;;;;;30.73;51.03;100912.09;5010736;28;20045;-65
2021/06/25 04:35:40;;;;;;;13.82;4.97;;;;;;;30.93;50.65;100916.22;5011010;28;20046;-64
2021/06/25 04:38:07;;;;;;;14.25;4.72;;;;;;;31.10;50.11;100916.88;5010961;28;20405;-65
2021/06/25 04:40:38;;;;;;;9.32;3.95;;;;;;;31.31;49.73;100919.16;5010398;28;20034;-65
2021/06/25 04:43:07;;;;;;;16.33;4.45;;;;;;;31.40;48.86;100924.84;5015576;28;20129;-65
2021/06/25 04:45:37;;;;;;;12.23;4.18;;;;;;;31.55;48.78;100922.91;5013893;28;20125;-65
2021/06/25 04:48:05;;;;;;;13.18;4.55;;;;;;;31.77;48.42;100923.19;5008207;28;20041;-65
2021/06/25 04:50:33;;;;;;;19.08;4.60;;;;;;;32.01;47.91;100926.94;5008726;28;20057;-65
2021/06/25 04:53:01;;;;;;;12.68;4.22;;;;;;;32.31;47.16;100931.19;5007687;28;20157;-65
2021/06/25 04:55:28;;;;;;;17.25;4.30;;;;;;;32.54;46.62;100929.53;5010971;28;20149;-65
2021/06/25 04:57:57;;;;;;;12.00;4.18;;;;;;;32.70;45.80;100935.63;5021883;28;20133;-65
2021/06/25 05:00:25;;;;;;;11.75;4.43;;;;;;;32.83;45.83;100934.63;5020643;28;20047;-65
2021/06/25 05:02:54;;;;;;;11.75;4.53;;;;;;;33.14;44.94;100941.41;5021935;28;20679;-65
2021/06/25 05:05:22;;;;;;;9.20;4.22;;;;;;;33.32;44.52;100938.28;5002765;28;20173;-65
2021/06/25 05:07:49;;;;;;;16.48;4.07;;;;;;;33.40;44.30;100936.72;5001250;28;20053;-65
2021/06/25 05:10:17;;;;;;;13.75;4.60;;;;;;;33.64;43.61;100944.88;5002540;28;20038;-65
2021/06/25 05:12:44;;;;;;;11.00;4.38;;;;;;;33.84;43.25;100933.28;5002639;28;20584;-66
2021/06/25 05:15:13;;;;;;;13.57;4.30;;;;;;;34.17;42.74;100945.28;5008291;28;20459;-66
2021/06/25 05:17:41;;;;;;;12.02;3.80;;;;;;;34.29;42.20;100939.72;5009720;28;20038;-65
2021/06/25 05:20:12;;;;;;;12.50;3.83;;;;;;;34.14;42.33;100948.25;5010707;28;20176;-65
2021/06/25 05:22:39;;;;;;;10.32;4.00;;;;;;;34.32;41.78;100955.06;5005341;28;20038;-65
2021/06/25 05:25:08;;;;;;;10.32;3.40;;;;;;;34.56;41.43;100950.31;5002492;28;20041;-65
2021/06/25 05:27:36;;;;;;;12.88;4.00;;;;;;;34.74;41.21;100950.69;5007453;28;20055;-66
2021/06/25 05:30:06;;;;;;;12.05;4.50;;;;;;;34.95;40.85;100957.16;4999171;28;20038;-64
2021/06/25 05:32:34;;;;;;;11.40;4.03;;;;;;;35.04;40.26;100948.16;5002841;28;20495;-64
2021/06/25 05:35:02;;;;;;;14.07;4.32;;;;;;;35.06;39.99;100961.75;5008811;28;20041;-64
2021/06/25 05:37:30;;;;;;;11.77;4.15;;;;;;;35.33;39.48;100958.56;5019152;28;20046;-64
2021/06/25 05:39:58;;;;;;;14.50;3.60;;;;;;;35.58;39.03;100960.97;5022376;28;20117;-63
2021/06/25 05:42:25;;;;;;;11.32;4.32;;;;;;;35.81;38.85;100959.03;5002262;28;20052;-64
2021/06/25 05:44:52;;;;;;;9.95;3.53;;;;;;;35.80;38.34;100954.53;5001554;28;20044;-64
2021/06/25 05:47:20;;;;;;;12.00;4.00;;;;;;;36.01;37.97;100949.91;5005715;28;20045;-64
2021/06/25 05:49:48;;;;;;;10.70;3.65;;;;;;;36.24;37.56;100956.13;5005430;28;20114;-64
2021/06/25 05:52:15;;;;;;;18.45;4.30;;;;;;;36.31;37.09;100952.69;5008629;28;20050;-64
2021/06/25 05:54:44;;;;;;;13.70;3.85;;;;;;;36.53;36.78;100954.41;5001929;28;20056;-64
2021/06/25 05:57:12;;;;;;;9.63;3.50;;;;;;;36.53;36.54;100950.78;5004926;28;20041;-64
2021/06/25 05:59:39;;;;;;;12.70;3.83;;;;;;;36.66;36.50;100948.69;5006486;28;20037;-65
2021/06/25 06:02:08;;;;;;;8.75;3.72;;;;;;;36.75;36.10;100945.13;5007244;28;20058;-64
2021/06/25 06:04:36;;;;;;;12.02;3.53;;;;;;;36.93;36.15;100937.91;5004845;28;21916;-64
2021/06/25 06:07:05;;;;;;;10.98;3.78;;;;;;;36.99;35.84;100940.09;5008434;28;20045;-65
2021/06/25 06:09:33;;;;;;;12.65;3.70;;;;;;;37.11;35.60;100936.22;4998982;28;20541;-64
2021/06/25 06:12:02;;;;;;;11.88;3.63;;;;;;;37.18;35.45;100949.44;5010151;28;20044;-64
2021/06/25 06:14:29;;;;;;;14.52;3.88;;;;;;;37.24;35.40;100952.47;5016750;28;20244;-64
2021/06/25 06:16:57;;;;;;;9.55;3.35;;;;;;;37.31;35.22;100939.00;5011118;28;20068;-64
2021/06/25 06:19:25;;;;;;;11.85;3.80;;;;;;;37.47;35.34;100939.31;5015450;28;20053;-64
2021/06/25 06:33:00;;;;;;;9.88;3.83;;;;;;;37.53;34.40;100941.47;5026004;28;20079;-65
2021/06/25 06:35:28;;;;;;;15.05;4.15;;;;;;;37.54;34.08;100943.22;5024623;28;20046;-65
2021/06/25 06:38:01;;;;;;;7.05;3.22;;;;;;;37.61;34.11;100930.63;5027452;28;20037;-64
2021/06/25 06:40:28;;;;;;;;;;;;;;;37.33;34.63;100934.22;5009259;28;20041;-64
2021/06/25 06:42:57;;;;;;;12.55;3.80;;;;;;;37.55;34.47;100922.91;5016373;28;20439;-64
2021/06/25 06:45:25;;;;;;;14.32;3.47;;;;;;;37.55;34.17;100922.06;5026714;28;20585;-64
2021/06/25 06:47:53;;;;;;;12.93;3.13;;;;;;;37.54;34.12;100929.44;5026962;28;20112;-65
2021/06/25 06:50:21;;;;;;;12.02;3.55;;;;;;;37.60;34.06;100923.38;5027614;28;20103;-64
2021/06/25 06:52:50;;;;;;;13.00;3.70;;;;;;;37.71;33.92;100927.84;5024756;28;20129;-64
2021/06/25 06:55:19;;;;;;;12.02;3.92;;;;;;;37.82;34.02;100916.66;5022931;28;20037;-65
2021/06/25 06:57:47;;;;;;;12.85;3.72;;;;;;;37.89;33.39;100918.69;5007585;28;20042;-64
2021/06/25 07:00:18;;;;;;;15.00;3.75;;;;;;;37.75;33.53;100912.75;5020847;28;20037;-65
2021/06/25 07:02:46;;;;;;;9.27;3.47;;;;;;;37.66;33.35;100920.03;5009416;28;20044;-65
2021/06/25 07:05:16;;;;;;;11.02;3.92;;;;;;;37.66;33.46;100909.00;5004574;28;20117;-65
2021/06/25 07:07:44;;;;;;;9.55;3.50;;;;;;;37.59;33.35;100913.38;5011777;28;20045;-64
2021/06/25 07:10:12;;;;;;;11.90;3.28;;;;;;;37.79;33.41;100912.31;5009586;28;20037;-64
2021/06/25 07:12:42;;;;;;;10.50;3.15;;;;;;;37.62;33.08;100903.91;5009284;28;20137;-64
2021/06/25 07:15:09;;;;;;;9.30;3.10;;;;;;;37.62;33.14;100909.44;5009364;28;20030;-65
2021/06/25 07:17:38;;;;;;;8.88;3.15;;;;;;;37.68;33.18;100909.72;5009106;28;20057;-65
2021/06/25 07:20:07;;;;;;;11.43;3.70;;;;;;;37.75;33.04;100904.47;5010305;28;20442;-64
2021/06/25 07:22:35;;;;;;;8.85;3.47;;;;;;;37.82;32.81;100911.13;5011022;28;20038;-65
2021/06/25 07:25:03;;;;;;;10.07;3.58;;;;;;;37.89;33.02;100909.53;5011104;28;20125;-64
2021/06/25 07:27:32;;;;;;;6.68;3.28;;;;;;;38.04;33.02;100910.84;5007431;28;20133;-64
2021/06/25 07:29:59;;;;;;;10.65;3.90;;;;;;;37.94;32.45;100909.97;5009751;28;20456;-64
2021/06/25 07:32:30;;;;;;;10.23;3.30;;;;;;;38.04;32.10;100915.50;5010112;28;20049;-64
2021/06/25 07:34:59;;;;;;;10.73;3.38;;;;;;;38.15;32.03;100912.53;5000300;28;20038;-64
2021/06/25 07:37:26;;;;;;;13.77;3.17;;;;;;;38.18;32.57;100929.69;5009993;28;20069;-65
2021/06/25 07:39:54;;;;;;;10.18;3.03;;;;;;;38.23;31.85;100913.53;5011125;28;20135;-64
2021/06/25 07:42:22;;;;;;;11.43;3.40;;;;;;;38.13;31.60;100912.72;5007720;28;20125;-65
2021/06/25 07:44:50;;;;;;;11.15;3.22;;;;;;;38.06;31.32;100911.56;5009171;28;20038;-64
2021/06/25 07:47:18;;;;;;;10.57;3.13;;;;;;;38.07;31.31;100909.69;5007982;28;20405;-65
2021/06/25 07:49:45;;;;;;;11.75;3.75;;;;;;;38.02;31.63;100917.47;5008354;28;20037;-65
2021/06/25 07:52:14;;;;;;;10.73;3.30;;;;;;;38.02;31.67;100914.72;5008685;28;20121;-65
2021/06/25 07:54:42;;;;;;;11.13;3.60;;;;;;;38.11;31.46;100916.63;5008073;28;20576;-65
2021/06/25 07:57:09;;;;;;;10.52;2.85;;;;;;;38.20;31.39;100924.84;5010710;28;20036;-65
2021/06/25 07:59:36;;;;;;;11.85;3.50;;;;;;;38.37;31.27;100923.22;5009897;28;20129;-65
2021/06/25 08:02:04;;;;;;;9.05;3.17;;;;;;;38.47;31.21;100924.03;5011243;28;20045;-64
2021/06/25 08:04:32;;;;;;;8.63;3.08;;;;;;;38.61;30.67;100911.66;5029200;28;20038;-65
2021/06/25 08:06:59;;;;;;;12.52;3.60;;;;;;;38.45;31.28;100919.69;5008407;28;20042;-64
2021/06/25 08:09:28;;;;;;;11.43;3.47;;;;;;;38.17;31.33;100924.31;5022141;28;20044;-65
2021/06/25 08:11:56;;;;;;;11.93;3.58;;;;;;;38.26;31.31;100926.16;5004501;28;20128;-65
2021/06/25 08:14:24;;;;;;;11.10;3.78;;;;;;;38.47;31.38;100915.75;5006464;28;20045;-65
2021/06/25 08:16:51;;;;;;;11.90;3.78;;;;;;;38.63;31.15;100913.25;4996614;28;20054;-65
2021/06/25 08:19:19;;;;;;;12.20;3.33;;;;;;;38.71;31.08;100922.66;5005879;28;20117;-65
2021/06/25 08:21:46;;;;;;;9.27;3.65;;;;;;;38.74;31.33;100927.84;4996570;28;21307;-65
2021/06/25 08:24:14;;;;;;;11.95;3.05;;;;;;;38.81;30.96;100923.44;4998011;28;20048;-65
2021/06/25 08:26:43;;;;;;;13.65;3.67;;;;;;;38.72;30.90;100929.91;5010267;28;20040;-65
2021/06/25 08:29:10;;;;;;;11.35;3.30;;;;;;;38.76;30.54;100932.22;5008936;28;20048;-65
2021/06/25 08:31:38;;;;;;;12.02;3.47;;;;;;;38.80;31.00;100921.69;5010237;28;20494;-64
2021/06/25 08:34:10;;;;;;;13.50;3.45;;;;;;;38.84;30.82;100925.91;5008915;28;20506;-65
2021/06/25 08:36:38;;;;;;;11.15;3.40;;;;;;;38.80;30.75;100924.47;5011145;28;20034;-64
2021/06/25 08:39:06;;;;;;;8.65;3.20;;;;;;;38.74;30.43;100927.84;5009451;28;20049;-65
2021/06/25 08:41:34;;;;;;;8.48;2.97;;;;;;;38.66;30.25;100921.19;5011463;28;20040;-65
2021/06/25 08:44:04;;;;;;;10.38;3.63;;;;;;;38.80;30.47;100928.09;5008710;28;20046;-64
2021/06/25 08:46:33;;;;;;;9.60;3.30;;;;;;;38.96;30.60;100933.00;5010453;28;20049;-64
2021/06/25 08:49:03;;;;;;;12.80;3.55;;;;;;;38.98;30.22;100923.53;5029399;28;20371;-65
2021/06/25 08:51:30;;;;;;;8.70;2.88;;;;;;;39.09;30.38;100935.38;5008298;28;20444;-64
2021/06/25 08:53:58;;;;;;;13.48;3.38;;;;;;;39.10;30.05;100926.94;5005869;28;20041;-65
2021/06/25 08:56:26;;;;;;;10.70;3.10;;;;;;;39.11;30.41;100934.22;5009170;28;20117;-65
2021/06/25 08:58:53;;;;;;;9.13;3.20;;;;;;;39.14;30.39;100927.47;5009608;28;20154;-65
2021/06/25 09:01:24;;;;;;;11.73;3.15;;;;;;;39.09;30.54;100929.84;5007300;28;20042;-65
2021/06/25 09:03:53;;;;;;;9.75;3.13;;;;;;;39.08;30.73;100939.16;5000277;28;20041;-65
2021/06/25 09:06:21;;;;;;;11.48;3.67;;;;;;;39.04;30.29;100933.97;5009424;28;20125;-64
2021/06/25 09:08:49;;;;;;;19.25;4.05;;;;;;;38.89;30.80;100941.00;5001047;28;20570;-64
2021/06/25 09:11:24;;;;;;;18.23;3.75;;;;;;;38.83;30.88;100940.75;5007495;28;20034;-64
2021/06/25 09:13:58;;;;;;;11.60;4.03;;;;;;;38.80;30.64;100930.88;5002456;28;20042;-64
2021/06/25 09:16:28;;;;;;;14.55;3.97;;;;;;;38.74;30.47;100936.13;5013926;28;20124;-64
2021/06/25 09:19:05;;;;;;;8.23;2.95;;;;;;;38.77;30.29;100933.94;5004135;28;20041;-64
2021/06/25 09:21:40;;;;;;;9.45;3.75;;;;;;;38.71;30.38;100939.22;5011322;28;20046;-64
2021/06/25 09:24:18;;;;;;;9.63;3.55;;;;;;;38.80;30.63;100930.00;5007020;28;20049;-64
2021/06/25 09:26:48;;;;;;;11.75;3.42;;;;;;;38.78;30.85;100930.16;5003908;28;20148;-64
2021/06/25 09:29:18;;;;;;;10.73;3.88;;;;;;;38.71;30.98;100930.94;5008507;28;20040;-64
2021/06/25 09:31:57;;;;;;;11.00;3.60;;;;;;;38.91;30.17;100925.16;4999218;28;20181;-64
2021/06/25 09:34:35;;;;;;;18.02;4.60;;;;;;;38.71;30.72;100920.75;5001553;28;20046;-64
2021/06/25 09:37:04;;;;;;;11.65;3.65;;;;;;;38.70;31.05;100924.53;5025318;28;20049;-64
2021/06/25 09:39:32;;;;;;;8.77;3.30;;;;;;;38.98;30.90;100923.53;5007740;28;20045;-63
2021/06/25 09:41:59;;;;;;;16.13;4.07;;;;;;;39.15;30.49;100921.81;5005443;28;20493;-64
2021/06/25 09:44:27;;;;;;;10.05;3.45;;;;;;;39.09;30.41;100918.78;5006939;28;20133;-64
2021/06/25 09:46:56;;;;;;;9.95;3.30;;;;;;;39.17;30.42;100921.66;5002937;28;20042;-64
2021/06/25 09:49:26;;;;;;;10.05;3.63;;;;;;;38.96;30.97;100913.66;5000830;28;20486;-65
2021/06/25 09:51:55;;;;;;;14.57;3.78;;;;;;;38.99;30.33;100921.66;5004400;28;20062;-64
2021/06/25 09:54:23;;;;;;;10.27;3.88;;;;;;;38.92;30.40;100917.75;5002525;28;20134;-64
2021/06/25 09:56:59;;;;;;;12.20;3.60;;;;;;;38.77;30.39;100922.91;5004002;28;20049;-64
2021/06/25 10:02:31;;;;;;;15.38;3.67;;;;;;;38.79;30.75;100914.47;5005034;28;20087;-64
2021/06/25 10:05:02;;;;;;;12.60;3.33;;;;;;;38.68;30.98;100908.13;5006679;28;20046;-64
2021/06/25 10:07:30;;;;;;;13.30;4.05;;;;;;;38.66;31.02;100907.41;5004819;28;20130;-65
2021/06/25 10:10:06;;;;;;;12.98;3.83;;;;;;;38.74;30.59;100900.22;5020256;28;20061;-65
2021/06/25 10:12:37;;;;;;;10.85;4.35;;;;;;;38.74;30.72;100891.94;4998201;28;20050;-64
2021/06/25 10:15:06;;;;;;;13.40;3.90;;;;;;;38.63;30.61;100887.53;5006145;28;20056;-64
2021/06/25 10:17:36;;;;;;;11.00;3.47;;;;;;;38.35;31.22;100899.53;5010781;28;20038;-64
2021/06/25 10:20:07;;;;;;;12.02;3.90;;;;;;;38.03;32.05;100888.91;5023635;28;20041;-64
2021/06/25 10:22:37;;;;;;;12.93;4.13;;;;;;;37.92;31.98;100883.56;5026520;28;20068;-66
2021/06/25 10:25:06;;;;;;;7.90;3.28;;;;;;;37.93;31.80;100888.94;5024081;28;20083;-65
2021/06/25 10:27:34;;;;;;;13.02;4.65;;;;;;;37.95;31.77;100883.25;5006306;28;20042;-65
2021/06/25 10:30:02;;;;;;;13.00;4.28;;;;;;;37.91;32.10;100888.19;5002564;28;20038;-65
2021/06/25 10:32:31;;;;;;;10.52;3.92;;;;;;;37.60;32.34;100882.03;5001767;28;20062;-65
2021/06/25 10:35:01;;;;;;;13.23;3.80;;;;;;;37.55;32.50;100884.31;5007795;28;20042;-65
2021/06/25 10:37:29;;;;;;;11.95;4.10;;;;;;;37.57;32.93;100885.06;5000938;28;20038;-65
2021/06/25 10:39:57;;;;;;;9.15;3.67;;;;;;;37.67;32.34;100854.75;5003853;28;20062;-66
2021/06/25 10:42:42;;;;;;;11.55;4.38;;;;;;;37.68;32.20;100871.13;5006965;28;20053;-66
2021/06/25 10:45:10;;;;;;;11.93;4.32;;;;;;;37.58;32.35;100867.53;5007705;28;20045;-66
2021/06/25 10:47:53;;;;;;;14.07;4.03;;;;;;;37.61;32.39;100869.13;4990139;28;20397;-66
2021/06/25 10:50:24;;;;;;;13.60;4.07;;;;;;;37.70;31.89;100863.56;5016158;28;20055;-65
2021/06/25 10:53:18;;;;;;;14.43;4.30;;;;;;;37.76;32.25;100856.59;5009044;28;20128;-65
2021/06/25 10:56:03;;;;;;;14.15;4.57;;;;;;;37.66;32.02;100851.13;5006434;28;20085;-66
2021/06/25 10:58:31;;;;;;;9.07;3.30;;;;;;;37.81;31.83;100860.63;5010243;28;20048;-64
2021/06/25 11:01:02;;;;;;;13.15;4.22;;;;;;;37.85;31.91;100845.56;5027405;28;20036;-65
2021/06/25 11:03:45;;;;;;;11.60;3.70;;;;;;;37.98;31.53;100847.09;5007050;28;20120;-65
2021/06/25 11:06:55;;;;;;;11.20;4.88;;;;;;;38.04;31.39;100833.63;5020961;28;20117;-65
2021/06/25 11:09:27;;;;;;;14.82;3.60;;;;;;;38.17;31.02;100825.84;5013484;28;20494;-65
2021/06/25 11:12:17;;;;;;;11.02;3.55;;;;;;;38.29;30.96;100838.44;5005353;28;20041;-65
2021/06/25 11:14:45;;;;;;;12.95;4.07;;;;;;;38.35;30.84;100834.19;5009349;28;20509;-65
2021/06/25 11:17:12;;;;;;;13.38;3.53;;;;;;;38.42;30.61;100838.06;5005370;28;20030;-65
2021/06/25 11:19:41;;;;;;;11.35;3.38;;;;;;;38.48;30.24;100829.19;5006511;28;20050;-66
2021/06/25 11:22:37;;;;;;;12.98;4.03;;;;;;;38.65;30.28;100833.91;5004075;28;20121;-65
2021/06/25 11:25:12;;;;;;;17.70;3.92;;;;;;;38.86;29.96;100830.81;5008059;28;20607;-66
2021/06/25 11:28:19;;;;;;;10.07;4.18;;;;;;;39.03;29.54;100820.84;4992782;28;20052;-65
2021/06/25 11:31:07;;;;;;;13.55;3.88;;;;;;;38.98;29.54;100820.47;5006304;28;20048;-65
2021/06/25 11:33:40;;;;;;;8.80;3.33;;;;;;;39.02;29.71;100814.44;5028133;28;20120;-65
2021/06/25 11:36:26;;;;;;;12.63;4.07;;;;;;;39.18;29.33;100812.88;4990402;28;20165;-65
2021/06/25 11:39:04;;;;;;;9.65;3.30;;;;;;;39.18;29.39;100805.44;4997485;28;20038;-65
2021/06/25 11:41:35;;;;;;;12.27;3.40;;;;;;;39.23;28.88;100797.53;4990960;28;20042;-66
2021/06/25 11:44:06;;;;;;;11.82;3.80;;;;;;;39.43;28.64;100801.88;5021003;28;20080;-66
2021/06/25 11:46:34;;;;;;;14.48;4.55;;;;;;;39.47;28.39;100799.66;5018792;28;20042;-65